• Join FlightAware (Why Join?)
  • Login
  • US Flag 
08:26PM EDT


 

Airport Tracker/Info


-or-


 

Live Flight TrackerFlight Track Log ✈ N400PU ✈ 04-Nov-2013 ✈ KMDW - KLAF

Flight Track Log - Related Links

Times and Time Zones

All times are in EST time to prevent confusion due to time zone crossing. See the N400PU flight status page for this flight to view local times or setup timezone preferences in your user account.

Time Position Orientation Groundspeed Altitude Reporting Facility
EST Latitude Longitude Course Direction KTS MPH feet Rate Location/Type
05:13PM 41.7333 -87.8167 163° South 208 239 3,800  Level Chicago TRACON
05:14PM 41.6833 -87.8000 166° South 251 289 6,300 2,520 Climbing Chicago TRACON
05:15PM 41.6333 -87.7500 143° Southeast 271 312 8,700 2,280 Climbing Chicago TRACON
05:16PM 41.5667 -87.7000 151° Southeast 288 331 10,700 1,440 Climbing Chicago TRACON
05:17PM 41.4769 -87.6181 146° Southeast 300 345 12,000 480 Climbing Chicago Center
05:18PM 41.4025 -87.5210 163° South  Level Estimated
05:18PM 41.4000 -87.5683 154° Southeast 314 361 11,900  Level Chicago Center
05:19PM 41.3056 -87.5528 173° South 338 389 11,900 -120 Level Chicago Center
05:20PM 41.2086 -87.5350 172° South 348 400 11,700 -480 Descending Chicago Center
05:21PM 41.1153 -87.4981 163° South 350 403 10,900 -780 Descending Chicago Center
05:22PM 41.0308 -87.4636 163° South 329 379 10,100 -480 Descending Chicago Center
05:23PM 40.9342 -87.4244 163° South 308 354 10,000 -120 Descending Chicago Center
05:24PM 40.9050 -87.4122 162° South 291 335 10,000  Level Chicago Center
05:24PM 40.8558 -87.3917 162° South 298 343 10,000 -480 Level Chicago Center
05:25PM 40.8208 -87.3783 164° South 285 328 9,500 -1,500 Descending Chicago Center
05:25PM 40.7858 -87.3650 164° South 267 307 8,500 -1,980 Descending Chicago Center
05:26PM 40.7489 -87.3486 161° South 255 293 7,500 -1,980 Descending Chicago Center
05:26PM 40.7186 -87.3367 163° South 256 295 6,500 -2,220 Descending Chicago Center
05:27PM 40.6853 -87.3247 165° South 248 285 5,300 -1,980 Descending Chicago Center
05:27PM 40.6544 -87.3086 158° South 248 285 4,500 -1,680 Descending Chicago Center
05:28PM 40.6156 -87.2950 165° South 236 272 3,500 -1,500 Descending Chicago Center
05:28PM 40.5861 -87.2817 161° South 229 264 3,000 -540 Descending Chicago Center
05:29PM 40.5600 -87.2744 168° South 192 221 3,000  Level Chicago Center
05:29PM 40.5406 -87.2631 156° South 198 228 3,000  Level Chicago Center
05:30PM 40.5253 -87.2583 167° South 154 177 3,000  Level Chicago Center
05:30PM 40.5017 -87.2478 161° South 167 192 3,000  Level Chicago Center
05:31PM 40.4842 -87.2417 165° South 145 167 3,000  Level Chicago Center
05:31PM 40.4606 -87.2275 155° Southeast 159 183 3,000  Level Chicago Center
05:32PM 40.4500 -87.2119 132° Southeast 168 193 3,000  Level Chicago Center
05:33PM 40.4222 -87.2028 166° South 159 183 3,000  Level Chicago Center
05:33PM 40.4381 -87.1456 70° East 183 211 3,000 -180 Level Chicago Center
05:34PM 40.4297 -87.0931 102° East 152 175 2,800 -480 Descending Chicago Center
05:35PM 40.4253 -87.0489 98° East 108 124 2,100 -660 Descending Chicago Center
05:36PM 40.4206 -87.0078 99° East 110 127 1,500 -600 Descending Chicago Center
05:38PM 40.4000 -86.9333 108° East  Level FlightAware Approximate
05:45PM 40.4123 -86.9369 108° East  Level Estimated